sensor_id;sensor_type;location;lat;lon;timestamp;P1;durP1;ratioP1;P2;durP2;ratioP2
18194;SDS011;9223;50.988;3.162;2023-09-07T00:02:07;14.43;;;12.93;;
18194;SDS011;9223;50.988;3.162;2023-09-07T00:08:12;14.98;;;13.57;;
18194;SDS011;9223;50.988;3.162;2023-09-07T00:14:16;14.70;;;13.15;;
18194;SDS011;9223;50.988;3.162;2023-09-07T00:20:20;14.00;;;12.55;;
18194;SDS011;9223;50.988;3.162;2023-09-07T00:26:25;16.77;;;12.68;;
18194;SDS011;9223;50.988;3.162;2023-09-07T00:32:28;14.55;;;13.05;;
18194;SDS011;9223;50.988;3.162;2023-09-07T00:38:33;15.00;;;13.48;;
18194;SDS011;9223;50.988;3.162;2023-09-07T00:44:36;14.52;;;12.75;;
18194;SDS011;9223;50.988;3.162;2023-09-07T00:50:40;15.38;;;13.82;;
18194;SDS011;9223;50.988;3.162;2023-09-07T00:56:45;17.80;;;13.80;;
18194;SDS011;9223;50.988;3.162;2023-09-07T01:02:48;14.40;;;12.90;;
18194;SDS011;9223;50.988;3.162;2023-09-07T01:08:53;16.38;;;13.63;;
18194;SDS011;9223;50.988;3.162;2023-09-07T01:14:59;17.15;;;14.80;;
18194;SDS011;9223;50.988;3.162;2023-09-07T01:21:03;17.77;;;14.27;;
18194;SDS011;9223;50.988;3.162;2023-09-07T01:27:10;16.88;;;15.07;;
18194;SDS011;9223;50.988;3.162;2023-09-07T01:33:14;16.95;;;15.15;;
18194;SDS011;9223;50.988;3.162;2023-09-07T01:39:18;16.85;;;15.10;;
18194;SDS011;9223;50.988;3.162;2023-09-07T01:45:23;17.20;;;14.80;;
18194;SDS011;9223;50.988;3.162;2023-09-07T01:51:26;19.08;;;14.95;;
18194;SDS011;9223;50.988;3.162;2023-09-07T01:57:31;17.52;;;15.63;;
18194;SDS011;9223;50.988;3.162;2023-09-07T02:03:36;29.25;;;16.30;;
18194;SDS011;9223;50.988;3.162;2023-09-07T02:09:39;18.17;;;16.00;;
18194;SDS011;9223;50.988;3.162;2023-09-07T02:15:43;16.45;;;14.48;;
18194;SDS011;9223;50.988;3.162;2023-09-07T02:21:48;19.25;;;16.10;;
18194;SDS011;9223;50.988;3.162;2023-09-07T02:27:54;18.50;;;15.35;;
18194;SDS011;9223;50.988;3.162;2023-09-07T02:33:57;18.13;;;14.95;;
18194;SDS011;9223;50.988;3.162;2023-09-07T02:40:02;19.80;;;15.98;;
18194;SDS011;9223;50.988;3.162;2023-09-07T02:46:08;17.58;;;15.25;;
18194;SDS011;9223;50.988;3.162;2023-09-07T02:52:12;19.67;;;15.55;;
18194;SDS011;9223;50.988;3.162;2023-09-07T02:58:17;18.08;;;15.57;;
18194;SDS011;9223;50.988;3.162;2023-09-07T03:04:21;17.92;;;16.02;;
18194;SDS011;9223;50.988;3.162;2023-09-07T03:10:25;18.25;;;16.35;;
18194;SDS011;9223;50.988;3.162;2023-09-07T03:16:30;19.13;;;15.77;;
18194;SDS011;9223;50.988;3.162;2023-09-07T03:22:34;17.63;;;15.15;;
18194;SDS011;9223;50.988;3.162;2023-09-07T03:28:38;18.50;;;14.82;;
18194;SDS011;9223;50.988;3.162;2023-09-07T03:34:42;17.13;;;14.57;;
18194;SDS011;9223;50.988;3.162;2023-09-07T03:40:46;18.08;;;16.02;;
18194;SDS011;9223;50.988;3.162;2023-09-07T03:46:49;19.70;;;16.30;;
18194;SDS011;9223;50.988;3.162;2023-09-07T03:52:55;18.25;;;15.55;;
18194;SDS011;9223;50.988;3.162;2023-09-07T03:58:59;20.67;;;16.83;;
18194;SDS011;9223;50.988;3.162;2023-09-07T04:05:02;17.20;;;15.25;;
18194;SDS011;9223;50.988;3.162;2023-09-07T04:11:08;18.67;;;15.40;;
18194;SDS011;9223;50.988;3.162;2023-09-07T04:17:11;18.77;;;15.98;;
18194;SDS011;9223;50.988;3.162;2023-09-07T04:23:15;19.02;;;15.05;;
18194;SDS011;9223;50.988;3.162;2023-09-07T04:29:20;18.70;;;15.65;;
18194;SDS011;9223;50.988;3.162;2023-09-07T04:35:26;17.85;;;15.45;;
18194;SDS011;9223;50.988;3.162;2023-09-07T04:41:30;17.67;;;15.00;;
18194;SDS011;9223;50.988;3.162;2023-09-07T04:47:35;19.23;;;15.45;;
18194;SDS011;9223;50.988;3.162;2023-09-07T04:53:39;22.40;;;16.85;;
18194;SDS011;9223;50.988;3.162;2023-09-07T04:59:42;19.75;;;16.48;;
18194;SDS011;9223;50.988;3.162;2023-09-07T05:05:52;19.63;;;16.02;;
18194;SDS011;9223;50.988;3.162;2023-09-07T05:12:02;21.33;;;16.38;;
18194;SDS011;9223;50.988;3.162;2023-09-07T05:18:09;18.10;;;15.07;;
18194;SDS011;9223;50.988;3.162;2023-09-07T05:24:16;16.27;;;14.55;;
18194;SDS011;9223;50.988;3.162;2023-09-07T05:30:21;19.65;;;14.80;;
18194;SDS011;9223;50.988;3.162;2023-09-07T05:36:24;22.52;;;16.55;;
18194;SDS011;9223;50.988;3.162;2023-09-07T05:42:29;17.98;;;14.80;;
18194;SDS011;9223;50.988;3.162;2023-09-07T05:48:33;19.88;;;15.30;;
18194;SDS011;9223;50.988;3.162;2023-09-07T05:54:36;17.85;;;14.57;;
18194;SDS011;9223;50.988;3.162;2023-09-07T06:00:41;16.80;;;14.18;;
18194;SDS011;9223;50.988;3.162;2023-09-07T06:06:45;17.20;;;14.63;;
18194;SDS011;9223;50.988;3.162;2023-09-07T06:12:49;17.23;;;13.65;;
18194;SDS011;9223;50.988;3.162;2023-09-07T06:18:54;15.70;;;13.95;;
18194;SDS011;9223;50.988;3.162;2023-09-07T06:24:57;15.15;;;13.02;;
18194;SDS011;9223;50.988;3.162;2023-09-07T06:31:01;17.02;;;12.38;;
18194;SDS011;9223;50.988;3.162;2023-09-07T06:37:06;14.38;;;12.82;;
18194;SDS011;9223;50.988;3.162;2023-09-07T06:43:10;14.30;;;12.00;;
18194;SDS011;9223;50.988;3.162;2023-09-07T06:49:13;16.05;;;12.63;;
18194;SDS011;9223;50.988;3.162;2023-09-07T06:55:18;13.70;;;11.90;;
18194;SDS011;9223;50.988;3.162;2023-09-07T07:01:22;12.38;;;11.07;;
18194;SDS011;9223;50.988;3.162;2023-09-07T07:07:26;15.27;;;11.32;;
18194;SDS011;9223;50.988;3.162;2023-09-07T07:13:31;20.40;;;11.68;;
18194;SDS011;9223;50.988;3.162;2023-09-07T07:19:35;14.75;;;11.43;;
18194;SDS011;9223;50.988;3.162;2023-09-07T07:25:38;11.85;;;10.13;;
18194;SDS011;9223;50.988;3.162;2023-09-07T07:31:43;15.80;;;9.77;;
18194;SDS011;9223;50.988;3.162;2023-09-07T07:37:49;11.10;;;8.73;;
18194;SDS011;9223;50.988;3.162;2023-09-07T07:43:53;12.60;;;10.02;;
18194;SDS011;9223;50.988;3.162;2023-09-07T07:49:58;11.95;;;9.57;;
18194;SDS011;9223;50.988;3.162;2023-09-07T07:56:01;13.38;;;9.25;;
18194;SDS011;9223;50.988;3.162;2023-09-07T08:02:05;13.35;;;10.18;;
18194;SDS011;9223;50.988;3.162;2023-09-07T08:08:10;11.10;;;8.70;;
18194;SDS011;9223;50.988;3.162;2023-09-07T08:14:14;11.05;;;9.27;;
18194;SDS011;9223;50.988;3.162;2023-09-07T08:20:17;11.20;;;8.85;;
18194;SDS011;9223;50.988;3.162;2023-09-07T08:26:22;14.40;;;9.30;;
18194;SDS011;9223;50.988;3.162;2023-09-07T08:32:26;11.57;;;8.77;;
18194;SDS011;9223;50.988;3.162;2023-09-07T08:38:30;10.00;;;8.85;;
18194;SDS011;9223;50.988;3.162;2023-09-07T08:44:36;12.00;;;9.05;;
18194;SDS011;9223;50.988;3.162;2023-09-07T08:50:40;9.52;;;8.38;;
18194;SDS011;9223;50.988;3.162;2023-09-07T08:56:45;10.45;;;8.35;;
18194;SDS011;9223;50.988;3.162;2023-09-07T09:02:50;12.35;;;7.93;;
18194;SDS011;9223;50.988;3.162;2023-09-07T09:08:57;9.77;;;7.45;;
18194;SDS011;9223;50.988;3.162;2023-09-07T09:15:01;7.07;;;6.30;;
18194;SDS011;9223;50.988;3.162;2023-09-07T09:21:06;7.75;;;6.78;;
18194;SDS011;9223;50.988;3.162;2023-09-07T09:27:10;7.15;;;6.38;;
18194;SDS011;9223;50.988;3.162;2023-09-07T09:33:13;14.50;;;6.95;;
18194;SDS011;9223;50.988;3.162;2023-09-07T09:39:22;9.32;;;7.60;;
18194;SDS011;9223;50.988;3.162;2023-09-07T09:45:26;9.85;;;7.43;;
18194;SDS011;9223;50.988;3.162;2023-09-07T09:51:30;8.27;;;7.40;;
18194;SDS011;9223;50.988;3.162;2023-09-07T09:57:35;8.35;;;6.97;;
18194;SDS011;9223;50.988;3.162;2023-09-07T10:03:40;8.73;;;7.18;;
18194;SDS011;9223;50.988;3.162;2023-09-07T10:09:48;8.68;;;6.68;;
18194;SDS011;9223;50.988;3.162;2023-09-07T10:16:00;8.18;;;7.05;;
18194;SDS011;9223;50.988;3.162;2023-09-07T10:22:06;7.70;;;5.82;;
18194;SDS011;9223;50.988;3.162;2023-09-07T10:28:19;6.32;;;5.70;;
18194;SDS011;9223;50.988;3.162;2023-09-07T10:34:35;6.78;;;5.22;;
18194;SDS011;9223;50.988;3.162;2023-09-07T10:40:41;5.38;;;4.80;;
18194;SDS011;9223;50.988;3.162;2023-09-07T10:46:47;7.93;;;5.80;;
18194;SDS011;9223;50.988;3.162;2023-09-07T10:52:52;5.70;;;4.82;;
18194;SDS011;9223;50.988;3.162;2023-09-07T10:58:56;7.63;;;5.22;;
18194;SDS011;9223;50.988;3.162;2023-09-07T11:05:00;6.22;;;5.07;;
18194;SDS011;9223;50.988;3.162;2023-09-07T11:11:05;6.80;;;5.40;;
18194;SDS011;9223;50.988;3.162;2023-09-07T11:17:09;5.18;;;4.68;;
18194;SDS011;9223;50.988;3.162;2023-09-07T11:23:13;5.97;;;4.35;;
18194;SDS011;9223;50.988;3.162;2023-09-07T11:29:18;5.78;;;4.45;;
18194;SDS011;9223;50.988;3.162;2023-09-07T11:35:21;6.35;;;4.88;;
18194;SDS011;9223;50.988;3.162;2023-09-07T11:41:25;6.10;;;4.35;;
18194;SDS011;9223;50.988;3.162;2023-09-07T11:47:29;6.22;;;4.00;;
18194;SDS011;9223;50.988;3.162;2023-09-07T11:53:33;7.13;;;5.43;;
18194;SDS011;9223;50.988;3.162;2023-09-07T11:59:38;9.63;;;4.25;;
18194;SDS011;9223;50.988;3.162;2023-09-07T12:06:00;5.75;;;4.50;;
18194;SDS011;9223;50.988;3.162;2023-09-07T12:12:04;6.25;;;4.00;;
18194;SDS011;9223;50.988;3.162;2023-09-07T12:18:07;4.38;;;3.97;;
18194;SDS011;9223;50.988;3.162;2023-09-07T12:24:13;5.95;;;3.95;;
18194;SDS011;9223;50.988;3.162;2023-09-07T12:30:17;4.95;;;4.13;;
18194;SDS011;9223;50.988;3.162;2023-09-07T12:36:22;5.53;;;4.30;;
18194;SDS011;9223;50.988;3.162;2023-09-07T12:42:27;4.72;;;4.05;;
18194;SDS011;9223;50.988;3.162;2023-09-07T12:48:31;7.53;;;4.00;;
18194;SDS011;9223;50.988;3.162;2023-09-07T12:54:34;4.55;;;3.95;;
18194;SDS011;9223;50.988;3.162;2023-09-07T13:00:39;5.47;;;4.55;;
18194;SDS011;9223;50.988;3.162;2023-09-07T13:06:43;5.90;;;4.03;;
18194;SDS011;9223;50.988;3.162;2023-09-07T13:12:46;4.72;;;4.20;;
18194;SDS011;9223;50.988;3.162;2023-09-07T13:18:51;4.38;;;3.97;;
18194;SDS011;9223;50.988;3.162;2023-09-07T13:24:55;4.40;;;4.00;;
18194;SDS011;9223;50.988;3.162;2023-09-07T13:30:59;4.40;;;3.92;;
18194;SDS011;9223;50.988;3.162;2023-09-07T13:37:04;5.53;;;4.80;;
18194;SDS011;9223;50.988;3.162;2023-09-07T13:43:07;5.13;;;4.43;;
18194;SDS011;9223;50.988;3.162;2023-09-07T13:49:11;4.45;;;4.05;;
18194;SDS011;9223;50.988;3.162;2023-09-07T13:55:17;4.25;;;3.85;;
18194;SDS011;9223;50.988;3.162;2023-09-07T14:01:21;6.07;;;4.10;;
18194;SDS011;9223;50.988;3.162;2023-09-07T14:07:25;4.47;;;4.07;;
18194;SDS011;9223;50.988;3.162;2023-09-07T14:13:31;4.80;;;4.32;;
18194;SDS011;9223;50.988;3.162;2023-09-07T14:19:36;5.82;;;3.90;;
18194;SDS011;9223;50.988;3.162;2023-09-07T14:25:40;5.20;;;3.95;;
18194;SDS011;9223;50.988;3.162;2023-09-07T14:31:47;4.93;;;4.00;;
18194;SDS011;9223;50.988;3.162;2023-09-07T14:37:51;4.03;;;3.63;;
18194;SDS011;9223;50.988;3.162;2023-09-07T14:43:55;5.30;;;4.35;;
18194;SDS011;9223;50.988;3.162;2023-09-07T14:50:00;4.15;;;3.78;;
18194;SDS011;9223;50.988;3.162;2023-09-07T14:56:04;4.47;;;4.07;;
18194;SDS011;9223;50.988;3.162;2023-09-07T15:02:08;5.05;;;4.28;;
18194;SDS011;9223;50.988;3.162;2023-09-07T15:08:13;6.43;;;4.55;;
18194;SDS011;9223;50.988;3.162;2023-09-07T15:14:16;6.35;;;4.60;;
18194;SDS011;9223;50.988;3.162;2023-09-07T15:20:20;5.78;;;4.88;;
18194;SDS011;9223;50.988;3.162;2023-09-07T15:26:25;4.78;;;4.28;;
18194;SDS011;9223;50.988;3.162;2023-09-07T15:32:29;5.03;;;4.45;;
18194;SDS011;9223;50.988;3.162;2023-09-07T15:38:33;4.95;;;4.40;;
18194;SDS011;9223;50.988;3.162;2023-09-07T15:44:39;6.00;;;4.38;;
18194;SDS011;9223;50.988;3.162;2023-09-07T15:50:48;6.90;;;4.55;;
18194;SDS011;9223;50.988;3.162;2023-09-07T15:56:51;4.95;;;4.45;;
18194;SDS011;9223;50.988;3.162;2023-09-07T16:03:05;5.10;;;4.60;;
18194;SDS011;9223;50.988;3.162;2023-09-07T16:09:09;4.88;;;4.38;;
18194;SDS011;9223;50.988;3.162;2023-09-07T16:15:13;5.00;;;4.57;;
18194;SDS011;9223;50.988;3.162;2023-09-07T16:21:18;5.78;;;4.43;;
18194;SDS011;9223;50.988;3.162;2023-09-07T16:27:22;6.35;;;4.50;;
18194;SDS011;9223;50.988;3.162;2023-09-07T16:33:25;5.03;;;4.55;;
18194;SDS011;9223;50.988;3.162;2023-09-07T16:39:30;7.45;;;5.10;;
18194;SDS011;9223;50.988;3.162;2023-09-07T16:45:35;8.98;;;5.93;;
18194;SDS011;9223;50.988;3.162;2023-09-07T16:51:38;8.00;;;6.30;;
18194;SDS011;9223;50.988;3.162;2023-09-07T16:57:44;10.75;;;6.53;;
18194;SDS011;9223;50.988;3.162;2023-09-07T17:03:48;7.90;;;5.55;;
18194;SDS011;9223;50.988;3.162;2023-09-07T17:09:52;11.43;;;6.32;;
18194;SDS011;9223;50.988;3.162;2023-09-07T17:15:57;8.20;;;5.70;;
18194;SDS011;9223;50.988;3.162;2023-09-07T17:22:00;11.15;;;6.35;;
18194;SDS011;9223;50.988;3.162;2023-09-07T17:28:04;10.25;;;6.32;;
18194;SDS011;9223;50.988;3.162;2023-09-07T17:34:09;7.55;;;5.78;;
18194;SDS011;9223;50.988;3.162;2023-09-07T17:40:12;5.10;;;4.55;;
18194;SDS011;9223;50.988;3.162;2023-09-07T17:46:17;7.55;;;5.70;;
18194;SDS011;9223;50.988;3.162;2023-09-07T17:52:22;7.18;;;5.45;;
18194;SDS011;9223;50.988;3.162;2023-09-07T17:58:26;8.95;;;5.60;;
18194;SDS011;9223;50.988;3.162;2023-09-07T18:04:30;8.82;;;6.65;;
18194;SDS011;9223;50.988;3.162;2023-09-07T18:10:35;9.73;;;6.20;;
18194;SDS011;9223;50.988;3.162;2023-09-07T18:16:39;7.60;;;5.75;;
18194;SDS011;9223;50.988;3.162;2023-09-07T18:22:43;7.90;;;5.25;;
18194;SDS011;9223;50.988;3.162;2023-09-07T18:28:48;7.25;;;5.43;;
18194;SDS011;9223;50.988;3.162;2023-09-07T18:34:51;7.72;;;5.55;;
18194;SDS011;9223;50.988;3.162;2023-09-07T18:40:55;7.25;;;6.50;;
18194;SDS011;9223;50.988;3.162;2023-09-07T18:47:00;8.25;;;7.45;;
18194;SDS011;9223;50.988;3.162;2023-09-07T18:53:04;8.15;;;6.55;;
18194;SDS011;9223;50.988;3.162;2023-09-07T18:59:07;7.85;;;6.22;;
18194;SDS011;9223;50.988;3.162;2023-09-07T19:05:13;7.22;;;5.85;;
18194;SDS011;9223;50.988;3.162;2023-09-07T19:11:16;6.70;;;5.35;;
18194;SDS011;9223;50.988;3.162;2023-09-07T19:17:20;7.07;;;6.18;;
18194;SDS011;9223;50.988;3.162;2023-09-07T19:23:25;8.93;;;7.22;;
18194;SDS011;9223;50.988;3.162;2023-09-07T19:29:29;7.50;;;6.60;;
18194;SDS011;9223;50.988;3.162;2023-09-07T19:35:33;7.43;;;6.68;;
18194;SDS011;9223;50.988;3.162;2023-09-07T19:41:39;8.13;;;6.65;;
18194;SDS011;9223;50.988;3.162;2023-09-07T19:47:42;10.23;;;7.30;;
18194;SDS011;9223;50.988;3.162;2023-09-07T19:53:47;9.48;;;8.48;;
18194;SDS011;9223;50.988;3.162;2023-09-07T19:59:52;11.70;;;8.95;;
18194;SDS011;9223;50.988;3.162;2023-09-07T20:05:56;11.93;;;9.35;;
18194;SDS011;9223;50.988;3.162;2023-09-07T20:11:59;9.68;;;8.38;;
18194;SDS011;9223;50.988;3.162;2023-09-07T20:18:06;10.02;;;9.00;;
18194;SDS011;9223;50.988;3.162;2023-09-07T20:24:10;11.35;;;9.18;;
18194;SDS011;9223;50.988;3.162;2023-09-07T20:30:13;11.80;;;9.57;;
18194;SDS011;9223;50.988;3.162;2023-09-07T20:36:19;10.80;;;9.45;;
18194;SDS011;9223;50.988;3.162;2023-09-07T20:42:22;10.77;;;9.50;;
18194;SDS011;9223;50.988;3.162;2023-09-07T20:48:26;10.30;;;9.30;;
18194;SDS011;9223;50.988;3.162;2023-09-07T20:54:32;10.60;;;9.50;;
18194;SDS011;9223;50.988;3.162;2023-09-07T21:00:35;10.90;;;9.73;;
18194;SDS011;9223;50.988;3.162;2023-09-07T21:06:39;12.30;;;10.07;;
18194;SDS011;9223;50.988;3.162;2023-09-07T21:12:46;10.63;;;9.48;;
18194;SDS011;9223;50.988;3.162;2023-09-07T21:18:49;13.90;;;9.75;;
18194;SDS011;9223;50.988;3.162;2023-09-07T21:24:54;11.93;;;10.73;;
18194;SDS011;9223;50.988;3.162;2023-09-07T21:30:59;13.02;;;9.68;;
18194;SDS011;9223;50.988;3.162;2023-09-07T21:37:02;11.35;;;10.20;;
18194;SDS011;9223;50.988;3.162;2023-09-07T21:43:06;11.20;;;10.00;;
18194;SDS011;9223;50.988;3.162;2023-09-07T21:49:11;11.10;;;10.05;;
18194;SDS011;9223;50.988;3.162;2023-09-07T21:55:15;12.40;;;11.10;;
18194;SDS011;9223;50.988;3.162;2023-09-07T22:01:18;13.93;;;11.77;;
18194;SDS011;9223;50.988;3.162;2023-09-07T22:07:24;15.05;;;10.60;;
18194;SDS011;9223;50.988;3.162;2023-09-07T22:13:27;11.80;;;10.60;;
18194;SDS011;9223;50.988;3.162;2023-09-07T22:19:31;12.73;;;11.00;;
18194;SDS011;9223;50.988;3.162;2023-09-07T22:25:36;13.02;;;11.68;;
18194;SDS011;9223;50.988;3.162;2023-09-07T22:31:39;13.52;;;12.10;;
18194;SDS011;9223;50.988;3.162;2023-09-07T22:37:43;13.77;;;12.38;;
18194;SDS011;9223;50.988;3.162;2023-09-07T22:43:47;13.27;;;11.93;;
18194;SDS011;9223;50.988;3.162;2023-09-07T22:49:51;12.95;;;11.70;;
18194;SDS011;9223;50.988;3.162;2023-09-07T22:55:55;14.30;;;12.25;;
18194;SDS011;9223;50.988;3.162;2023-09-07T23:01:59;13.77;;;12.02;;
18194;SDS011;9223;50.988;3.162;2023-09-07T23:08:03;14.07;;;12.68;;
18194;SDS011;9223;50.988;3.162;2023-09-07T23:14:07;14.13;;;12.65;;
18194;SDS011;9223;50.988;3.162;2023-09-07T23:20:12;15.75;;;14.15;;
18194;SDS011;9223;50.988;3.162;2023-09-07T23:26:16;16.73;;;14.02;;
18194;SDS011;9223;50.988;3.162;2023-09-07T23:32:22;14.45;;;12.65;;
18194;SDS011;9223;50.988;3.162;2023-09-07T23:38:28;14.82;;;13.23;;
18194;SDS011;9223;50.988;3.162;2023-09-07T23:44:32;15.85;;;13.57;;
18194;SDS011;9223;50.988;3.162;2023-09-07T23:50:35;16.08;;;14.45;;
18194;SDS011;9223;50.988;3.162;2023-09-07T23:56:40;17.52;;;15.27;;
